sensor_id;sensor_type;location;lat;lon;timestamp;pressure;altitude;pressure_sealevel;temperature;humidity
69980;BME280;57318;56.232;43.944;2023-02-03T00:01:31;98969.34;;;-3.81;83.34
69980;BME280;57318;56.232;43.944;2023-02-03T00:03:56;98969.34;;;-3.81;83.37
69980;BME280;57318;56.232;43.944;2023-02-03T00:06:22;98972.00;;;-3.82;83.47
69980;BME280;57318;56.232;43.944;2023-02-03T00:08:48;98970.28;;;-3.82;83.30
69980;BME280;57318;56.232;43.944;2023-02-03T00:11:18;98976.22;;;-3.78;83.57
69980;BME280;57318;56.232;43.944;2023-02-03T00:13:44;98964.22;;;-3.82;83.24
69980;BME280;57318;56.232;43.944;2023-02-03T00:16:09;98961.66;;;-3.84;83.07
69980;BME280;57318;56.232;43.944;2023-02-03T00:18:35;98972.09;;;-3.85;83.21
69980;BME280;57318;56.232;43.944;2023-02-03T00:21:01;98975.59;;;-3.86;83.21
69980;BME280;57318;56.232;43.944;2023-02-03T00:23:26;98969.69;;;-3.91;83.28
69980;BME280;57318;56.232;43.944;2023-02-03T00:25:56;98960.19;;;-3.92;83.13
69980;BME280;57318;56.232;43.944;2023-02-03T00:28:22;98968.78;;;-3.90;83.18
69980;BME280;57318;56.232;43.944;2023-02-03T00:30:48;98969.66;;;-3.90;83.44
69980;BME280;57318;56.232;43.944;2023-02-03T00:33:14;98965.38;;;-3.92;83.56
69980;BME280;57318;56.232;43.944;2023-02-03T00:35:39;98965.56;;;-3.99;83.27
69980;BME280;57318;56.232;43.944;2023-02-03T00:38:05;98953.47;;;-4.00;83.64
69980;BME280;57318;56.232;43.944;2023-02-03T00:40:31;98965.66;;;-4.02;83.46
69980;BME280;57318;56.232;43.944;2023-02-03T00:42:56;98958.75;;;-4.03;83.47
69980;BME280;57318;56.232;43.944;2023-02-03T00:45:22;98955.22;;;-4.00;83.98
69980;BME280;57318;56.232;43.944;2023-02-03T00:47:48;98965.69;;;-4.03;83.70
69980;BME280;57318;56.232;43.944;2023-02-03T00:50:13;98954.38;;;-4.01;83.84
69980;BME280;57318;56.232;43.944;2023-02-03T00:52:39;98957.81;;;-4.00;83.97
69980;BME280;57318;56.232;43.944;2023-02-03T00:55:05;98967.31;;;-3.99;83.66
69980;BME280;57318;56.232;43.944;2023-02-03T00:57:31;98960.41;;;-4.00;83.95
69980;BME280;57318;56.232;43.944;2023-02-03T00:59:57;98966.53;;;-4.03;83.56
69980;BME280;57318;56.232;43.944;2023-02-03T01:02:23;98960.47;;;-4.02;83.67
69980;BME280;57318;56.232;43.944;2023-02-03T01:04:48;98968.19;;;-4.00;83.70
69980;BME280;57318;56.232;43.944;2023-02-03T01:07:15;98960.47;;;-4.02;83.56
69980;BME280;57318;56.232;43.944;2023-02-03T01:09:40;98955.34;;;-4.05;83.61
69980;BME280;57318;56.232;43.944;2023-02-03T01:12:06;98955.34;;;-4.05;83.58
69980;BME280;57318;56.232;43.944;2023-02-03T01:14:32;98957.19;;;-4.08;83.64
69980;BME280;57318;56.232;43.944;2023-02-03T01:16:59;98959.72;;;-4.05;84.13
69980;BME280;57318;56.232;43.944;2023-02-03T01:19:25;98962.34;;;-4.07;83.98
69980;BME280;57318;56.232;43.944;2023-02-03T01:21:51;98957.94;;;-4.05;83.81
69980;BME280;57318;56.232;43.944;2023-02-03T01:24:16;98947.75;;;-4.11;83.75
69980;BME280;57318;56.232;43.944;2023-02-03T01:26:42;98945.16;;;-4.11;83.98
69980;BME280;57318;56.232;43.944;2023-02-03T01:29:08;98955.47;;;-4.09;84.11
69980;BME280;57318;56.232;43.944;2023-02-03T01:31:37;98951.13;;;-4.09;83.93
69980;BME280;57318;56.232;43.944;2023-02-03T01:34:05;98953.56;;;-4.03;84.15
69980;BME280;57318;56.232;43.944;2023-02-03T01:36:33;98956.16;;;-4.03;83.85
69980;BME280;57318;56.232;43.944;2023-02-03T01:39:00;98960.47;;;-4.02;83.79
69980;BME280;57318;56.232;43.944;2023-02-03T01:41:28;98952.63;;;-4.00;83.74
69980;BME280;57318;56.232;43.944;2023-02-03T01:43:56;98951.69;;;-3.97;83.91
69980;BME280;57318;56.232;43.944;2023-02-03T01:46:43;98939.53;;;-3.95;83.80
69980;BME280;57318;56.232;43.944;2023-02-03T01:49:18;98947.22;;;-3.92;83.34
69980;BME280;57318;56.232;43.944;2023-02-03T01:51:48;98940.31;;;-3.93;83.62
69980;BME280;57318;56.232;43.944;2023-02-03T01:54:22;98942.69;;;-3.86;83.43
69980;BME280;57318;56.232;43.944;2023-02-03T01:56:54;98946.03;;;-3.82;83.59
69980;BME280;57318;56.232;43.944;2023-02-03T01:59:21;98945.94;;;-3.79;83.22
69980;BME280;57318;56.232;43.944;2023-02-03T02:01:51;98949.31;;;-3.75;83.34
69980;BME280;57318;56.232;43.944;2023-02-03T02:04:18;98943.31;;;-3.77;82.84
69980;BME280;57318;56.232;43.944;2023-02-03T02:06:45;98947.56;;;-3.75;82.97
69980;BME280;57318;56.232;43.944;2023-02-03T02:09:13;98936.31;;;-3.74;82.78
69980;BME280;57318;56.232;43.944;2023-02-03T02:11:39;98944.75;;;-3.67;83.04
69980;BME280;57318;56.232;43.944;2023-02-03T02:14:05;98945.59;;;-3.67;82.76
69980;BME280;57318;56.232;43.944;2023-02-03T02:16:57;98947.31;;;-3.66;82.47
69980;BME280;57318;56.232;43.944;2023-02-03T02:22:23;98943.72;;;-3.61;82.54
69980;BME280;57318;56.232;43.944;2023-02-03T02:30:23;98949.81;;;-3.63;81.89
69980;BME280;57318;56.232;43.944;2023-02-03T02:35:50;98949.84;;;-3.64;82.34
69980;BME280;57318;56.232;43.944;2023-02-03T02:41:01;98937.75;;;-3.65;82.43
69980;BME280;57318;56.232;43.944;2023-02-03T02:46:08;98932.59;;;-3.67;82.27
69980;BME280;57318;56.232;43.944;2023-02-03T02:48:39;98934.28;;;-3.64;82.18
69980;BME280;57318;56.232;43.944;2023-02-03T02:51:10;98934.22;;;-3.63;82.45
69980;BME280;57318;56.232;43.944;2023-02-03T02:53:41;98930.66;;;-3.60;82.49
69980;BME280;57318;56.232;43.944;2023-02-03T02:56:12;98941.31;;;-3.68;82.33
69980;BME280;57318;56.232;43.944;2023-02-03T02:58:40;98936.16;;;-3.69;82.05
69980;BME280;57318;56.232;43.944;2023-02-03T03:01:08;98940.31;;;-3.64;81.96
69980;BME280;57318;56.232;43.944;2023-02-03T03:03:34;98947.31;;;-3.66;82.02
69980;BME280;57318;56.232;43.944;2023-02-03T03:06:07;98936.91;;;-3.66;82.07
69980;BME280;57318;56.232;43.944;2023-02-03T03:09:24;98944.13;;;-3.75;82.17
69980;BME280;57318;56.232;43.944;2023-02-03T03:11:55;98940.56;;;-3.73;82.27
69980;BME280;57318;56.232;43.944;2023-02-03T03:14:25;98937.19;;;-3.75;81.99
69980;BME280;57318;56.232;43.944;2023-02-03T03:16:58;98935.38;;;-3.73;82.15
69980;BME280;57318;56.232;43.944;2023-02-03T03:19:29;98937.28;;;-3.78;82.22
69980;BME280;57318;56.232;43.944;2023-02-03T03:22:00;98936.44;;;-3.78;82.22
69980;BME280;57318;56.232;43.944;2023-02-03T03:24:30;98933.09;;;-3.84;82.15
69980;BME280;57318;56.232;43.944;2023-02-03T03:27:17;98945.06;;;-3.78;82.28
69980;BME280;57318;56.232;43.944;2023-02-03T03:30:02;98944.44;;;-3.86;82.28
69980;BME280;57318;56.232;43.944;2023-02-03T03:32:29;98952.19;;;-3.85;82.30
69980;BME280;57318;56.232;43.944;2023-02-03T03:34:58;98955.50;;;-3.79;82.28
69980;BME280;57318;56.232;43.944;2023-02-03T03:40:15;98953.56;;;-3.73;82.48
69980;BME280;57318;56.232;43.944;2023-02-03T03:42:50;98947.47;;;-3.72;82.31
69980;BME280;57318;56.232;43.944;2023-02-03T03:45:26;98949.16;;;-3.69;82.45
69980;BME280;57318;56.232;43.944;2023-02-03T03:50:51;98945.69;;;-3.70;82.10
69980;BME280;57318;56.232;43.944;2023-02-03T03:53:18;98948.41;;;-3.74;82.10
69980;BME280;57318;56.232;43.944;2023-02-03T03:55:48;98945.94;;;-3.79;82.03
69980;BME280;57318;56.232;43.944;2023-02-03T03:58:27;98948.63;;;-3.82;82.30
69980;BME280;57318;56.232;43.944;2023-02-03T04:00:59;98938.25;;;-3.82;82.33
69980;BME280;57318;56.232;43.944;2023-02-03T04:03:41;98940.00;;;-3.83;82.17
69980;BME280;57318;56.232;43.944;2023-02-03T04:06:09;98943.56;;;-3.87;82.32
69980;BME280;57318;56.232;43.944;2023-02-03T04:08:34;98948.97;;;-3.93;82.04
69980;BME280;57318;56.232;43.944;2023-02-03T04:11:00;98948.19;;;-3.96;82.49
69980;BME280;57318;56.232;43.944;2023-02-03T04:13:26;98951.75;;;-3.99;82.11
69980;BME280;57318;56.232;43.944;2023-02-03T04:15:51;98943.25;;;-4.06;82.54
69980;BME280;57318;56.232;43.944;2023-02-03T04:18:25;98943.31;;;-4.07;82.42
69980;BME280;57318;56.232;43.944;2023-02-03T04:20:54;98948.63;;;-4.12;82.67
69980;BME280;57318;56.232;43.944;2023-02-03T04:23:20;98944.34;;;-4.13;82.74
69980;BME280;57318;56.232;43.944;2023-02-03T04:25:45;98952.97;;;-4.12;83.04
69980;BME280;57318;56.232;43.944;2023-02-03T04:28:11;98948.72;;;-4.15;82.91
69980;BME280;57318;56.232;43.944;2023-02-03T04:30:36;98948.72;;;-4.15;82.88
69980;BME280;57318;56.232;43.944;2023-02-03T04:33:02;98951.38;;;-4.17;82.87
69980;BME280;57318;56.232;43.944;2023-02-03T04:35:29;98948.72;;;-4.15;82.85
69980;BME280;57318;56.232;43.944;2023-02-03T04:37:54;98952.22;;;-4.16;82.73
69980;BME280;57318;56.232;43.944;2023-02-03T04:40:20;98950.50;;;-4.17;82.94
69980;BME280;57318;56.232;43.944;2023-02-03T04:42:45;98966.06;;;-4.17;82.76
69980;BME280;57318;56.232;43.944;2023-02-03T04:45:11;98960.88;;;-4.17;82.77
69980;BME280;57318;56.232;43.944;2023-02-03T04:47:37;98956.66;;;-4.20;82.58
69980;BME280;57318;56.232;43.944;2023-02-03T04:50:04;98954.09;;;-4.21;82.55
69980;BME280;57318;56.232;43.944;2023-02-03T04:52:29;98963.69;;;-4.25;82.57
69980;BME280;57318;56.232;43.944;2023-02-03T04:54:55;98965.41;;;-4.24;82.60
69980;BME280;57318;56.232;43.944;2023-02-03T04:57:20;98967.06;;;-4.21;82.53
69980;BME280;57318;56.232;43.944;2023-02-03T04:59:46;98960.97;;;-4.20;82.83
69980;BME280;57318;56.232;43.944;2023-02-03T05:02:12;98958.53;;;-4.26;82.69
69980;BME280;57318;56.232;43.944;2023-02-03T05:04:37;98955.81;;;-4.22;82.62
69980;BME280;57318;56.232;43.944;2023-02-03T05:07:03;98957.81;;;-4.31;82.30
69980;BME280;57318;56.232;43.944;2023-02-03T05:09:28;98951.78;;;-4.32;82.29
69980;BME280;57318;56.232;43.944;2023-02-03T05:11:54;98963.94;;;-4.34;82.52
69980;BME280;57318;56.232;43.944;2023-02-03T05:14:20;98963.19;;;-4.38;82.57
69980;BME280;57318;56.232;43.944;2023-02-03T05:16:45;98966.72;;;-4.42;82.29
69980;BME280;57318;56.232;43.944;2023-02-03T05:19:12;98958.16;;;-4.44;82.77
69980;BME280;57318;56.232;43.944;2023-02-03T05:21:37;98953.97;;;-4.48;82.55
69980;BME280;57318;56.232;43.944;2023-02-03T05:24:03;98963.41;;;-4.47;82.68
69980;BME280;57318;56.232;43.944;2023-02-03T05:26:32;98959.16;;;-4.48;82.85
69980;BME280;57318;56.232;43.944;2023-02-03T05:28:58;98965.25;;;-4.50;82.82
69980;BME280;57318;56.232;43.944;2023-02-03T05:31:23;98956.56;;;-4.48;82.69
69980;BME280;57318;56.232;43.944;2023-02-03T05:33:49;98956.63;;;-4.51;82.69
69980;BME280;57318;56.232;43.944;2023-02-03T05:36:14;98961.69;;;-4.46;82.48
69980;BME280;57318;56.232;43.944;2023-02-03T05:38:40;98954.91;;;-4.52;82.26
69980;BME280;57318;56.232;43.944;2023-02-03T05:41:11;98957.38;;;-4.47;82.46
69980;BME280;57318;56.232;43.944;2023-02-03T05:43:56;98963.41;;;-4.47;82.56
69980;BME280;57318;56.232;43.944;2023-02-03T05:46:22;98956.56;;;-4.48;82.19
69980;BME280;57318;56.232;43.944;2023-02-03T05:48:47;98960.78;;;-4.45;82.40
69980;BME280;57318;56.232;43.944;2023-02-03T05:51:13;98960.72;;;-4.42;82.21
69980;BME280;57318;56.232;43.944;2023-02-03T05:53:39;98966.50;;;-4.32;82.24
69980;BME280;57318;56.232;43.944;2023-02-03T05:56:04;98964.69;;;-4.29;81.98
69980;BME280;57318;56.232;43.944;2023-02-03T05:58:30;98957.63;;;-4.24;82.02
69980;BME280;57318;56.232;43.944;2023-02-03T06:00:56;98964.28;;;-4.15;81.92
69980;BME280;57318;56.232;43.944;2023-02-03T06:03:21;98972.84;;;-4.11;81.55
69980;BME280;57318;56.232;43.944;2023-02-03T06:05:47;98970.88;;;-4.03;81.36
69980;BME280;57318;56.232;43.944;2023-02-03T06:08:12;98968.19;;;-4.00;81.26
69980;BME280;57318;56.232;43.944;2023-02-03T06:10:38;98974.97;;;-3.94;81.02
69980;BME280;57318;56.232;43.944;2023-02-03T06:13:09;98969.69;;;-3.91;80.32
69980;BME280;57318;56.232;43.944;2023-02-03T06:15:36;98975.69;;;-3.89;80.63
69980;BME280;57318;56.232;43.944;2023-02-03T06:18:01;98972.91;;;-3.83;80.38
69980;BME280;57318;56.232;43.944;2023-02-03T06:20:27;98973.63;;;-3.78;80.59
69980;BME280;57318;56.232;43.944;2023-02-03T06:22:53;98979.56;;;-3.74;79.87
69980;BME280;57318;56.232;43.944;2023-02-03T06:25:18;98972.59;;;-3.72;80.11
69980;BME280;57318;56.232;43.944;2023-02-03T06:27:44;98975.25;;;-3.74;79.70
69980;BME280;57318;56.232;43.944;2023-02-03T06:30:10;98978.47;;;-3.66;79.80
69980;BME280;57318;56.232;43.944;2023-02-03T06:32:36;98969.84;;;-3.66;79.91
69980;BME280;57318;56.232;43.944;2023-02-03T06:35:02;98974.88;;;-3.61;79.53
69980;BME280;57318;56.232;43.944;2023-02-03T06:37:28;98977.31;;;-3.57;79.48
69980;BME280;57318;56.232;43.944;2023-02-03T06:39:54;98976.38;;;-3.54;79.79
69980;BME280;57318;56.232;43.944;2023-02-03T06:42:19;98974.59;;;-3.52;79.69
69980;BME280;57318;56.232;43.944;2023-02-03T06:44:45;98978.81;;;-3.48;79.19
69980;BME280;57318;56.232;43.944;2023-02-03T06:47:10;98977.81;;;-3.44;79.20
69980;BME280;57318;56.232;43.944;2023-02-03T06:49:36;98976.03;;;-3.42;78.88
69980;BME280;57318;56.232;43.944;2023-02-03T06:52:01;98977.81;;;-3.44;78.79
69980;BME280;57318;56.232;43.944;2023-02-03T06:54:27;98981.25;;;-3.43;78.73
69980;BME280;57318;56.232;43.944;2023-02-03T06:56:53;98977.00;;;-3.46;78.90
69980;BME280;57318;56.232;43.944;2023-02-03T06:59:18;98977.00;;;-3.46;78.98
69980;BME280;57318;56.232;43.944;2023-02-03T07:01:44;98977.78;;;-3.42;78.75
69980;BME280;57318;56.232;43.944;2023-02-03T07:04:09;98975.09;;;-3.39;78.66
69980;BME280;57318;56.232;43.944;2023-02-03T07:06:35;98975.03;;;-3.38;78.81
69980;BME280;57318;56.232;43.944;2023-02-03T07:09:02;98975.97;;;-3.40;78.54
69980;BME280;57318;56.232;43.944;2023-02-03T07:11:28;98974.03;;;-3.34;78.64
69980;BME280;57318;56.232;43.944;2023-02-03T07:13:54;98967.81;;;-3.28;78.49
69980;BME280;57318;56.232;43.944;2023-02-03T07:16:20;98974.59;;;-3.24;78.68
69980;BME280;57318;56.232;43.944;2023-02-03T07:18:46;98977.81;;;-3.16;78.71
69980;BME280;57318;56.232;43.944;2023-02-03T07:21:13;98974.09;;;-3.09;78.44
69980;BME280;57318;56.232;43.944;2023-02-03T07:23:39;98971.38;;;-3.04;77.99
69980;BME280;57318;56.232;43.944;2023-02-03T07:26:06;98973.81;;;-2.99;77.80
69980;BME280;57318;56.232;43.944;2023-02-03T07:28:33;98963.88;;;-2.86;77.36
69980;BME280;57318;56.232;43.944;2023-02-03T07:30:59;98973.03;;;-2.75;77.00
69980;BME280;57318;56.232;43.944;2023-02-03T07:33:26;98969.00;;;-2.58;76.46
69980;BME280;57318;56.232;43.944;2023-02-03T07:35:56;98969.25;;;-2.41;76.02
69980;BME280;57318;56.232;43.944;2023-02-03T07:38:22;98972.16;;;-2.23;75.26
69980;BME280;57318;56.232;43.944;2023-02-03T07:40:48;98968.84;;;-2.05;74.65
69980;BME280;57318;56.232;43.944;2023-02-03T07:43:13;98966.59;;;-1.90;74.04
69980;BME280;57318;56.232;43.944;2023-02-03T07:45:39;98957.50;;;-1.78;73.52
69980;BME280;57318;56.232;43.944;2023-02-03T07:48:05;98957.81;;;-1.64;73.23
69980;BME280;57318;56.232;43.944;2023-02-03T07:50:30;98957.69;;;-1.61;72.39
69980;BME280;57318;56.232;43.944;2023-02-03T07:52:58;98959.66;;;-1.44;71.92
69980;BME280;57318;56.232;43.944;2023-02-03T07:55:24;98957.19;;;-1.25;71.70
69980;BME280;57318;56.232;43.944;2023-02-03T07:57:52;98957.97;;;-1.23;70.69
69980;BME280;57318;56.232;43.944;2023-02-03T08:00:17;98952.75;;;-1.23;71.01
69980;BME280;57318;56.232;43.944;2023-02-03T08:02:43;98946.22;;;-1.33;69.89
69980;BME280;57318;56.232;43.944;2023-02-03T08:05:10;98951.72;;;-1.41;70.02
69980;BME280;57318;56.232;43.944;2023-02-03T08:07:36;98960.28;;;-1.37;70.29
69980;BME280;57318;56.232;43.944;2023-02-03T08:10:02;98960.31;;;-1.61;69.52
69980;BME280;57318;56.232;43.944;2023-02-03T08:12:29;98952.31;;;-1.56;69.85
69980;BME280;57318;56.232;43.944;2023-02-03T08:14:55;98966.41;;;-1.62;70.48
69980;BME280;57318;56.232;43.944;2023-02-03T08:17:20;98968.47;;;-1.70;70.89
69980;BME280;57318;56.232;43.944;2023-02-03T08:19:46;98963.59;;;-1.79;70.82
69980;BME280;57318;56.232;43.944;2023-02-03T08:22:12;98965.66;;;-1.88;71.36
69980;BME280;57318;56.232;43.944;2023-02-03T08:24:41;98961.66;;;-1.96;71.52
69980;BME280;57318;56.232;43.944;2023-02-03T08:27:13;98959.25;;;-2.03;71.69
69980;BME280;57318;56.232;43.944;2023-02-03T08:29:39;98964.53;;;-2.04;72.12
69980;BME280;57318;56.232;43.944;2023-02-03T08:32:08;98963.53;;;-2.02;72.14
69980;BME280;57318;56.232;43.944;2023-02-03T08:34:34;98960.78;;;-1.97;71.84
69980;BME280;57318;56.232;43.944;2023-02-03T08:37:00;98957.16;;;-1.93;71.69
69980;BME280;57318;56.232;43.944;2023-02-03T08:39:26;98963.00;;;-1.86;71.50
69980;BME280;57318;56.232;43.944;2023-02-03T08:41:51;98950.97;;;-1.90;70.98
69980;BME280;57318;56.232;43.944;2023-02-03T08:44:17;98953.41;;;-1.86;71.02
69980;BME280;57318;56.232;43.944;2023-02-03T08:46:47;98945.31;;;-1.78;71.16
69980;BME280;57318;56.232;43.944;2023-02-03T08:49:13;98956.25;;;-1.68;71.30
69980;BME280;57318;56.232;43.944;2023-02-03T08:51:39;98956.06;;;-1.64;70.87
69980;BME280;57318;56.232;43.944;2023-02-03T08:54:04;98949.34;;;-1.69;70.19
69980;BME280;57318;56.232;43.944;2023-02-03T08:56:30;98944.78;;;-1.64;70.45
69980;BME280;57318;56.232;43.944;2023-02-03T08:58:55;98953.66;;;-1.68;69.87
69980;BME280;57318;56.232;43.944;2023-02-03T09:01:21;98945.69;;;-1.65;70.09
69980;BME280;57318;56.232;43.944;2023-02-03T09:03:47;98951.03;;;-1.68;70.05
69980;BME280;57318;56.232;43.944;2023-02-03T09:06:12;98949.22;;;-1.66;69.44
69980;BME280;57318;56.232;43.944;2023-02-03T09:08:44;98959.75;;;-1.69;69.65
69980;BME280;57318;56.232;43.944;2023-02-03T09:11:16;98958.91;;;-1.70;69.65
69980;BME280;57318;56.232;43.944;2023-02-03T09:13:42;98966.84;;;-1.73;69.64
69980;BME280;57318;56.232;43.944;2023-02-03T09:16:14;98959.75;;;-1.69;69.38
69980;BME280;57318;56.232;43.944;2023-02-03T09:18:43;98956.31;;;-1.70;69.22
69980;BME280;57318;56.232;43.944;2023-02-03T09:21:10;98964.84;;;-1.66;69.37
69980;BME280;57318;56.232;43.944;2023-02-03T09:23:36;98959.53;;;-1.63;68.99
69980;BME280;57318;56.232;43.944;2023-02-03T09:26:04;98956.25;;;-1.68;68.93
69980;BME280;57318;56.232;43.944;2023-02-03T09:28:30;98953.59;;;-1.67;68.94
69980;BME280;57318;56.232;43.944;2023-02-03T09:31:05;98956.91;;;-1.63;68.84
69980;BME280;57318;56.232;43.944;2023-02-03T09:33:31;98956.69;;;-1.57;69.26
69980;BME280;57318;56.232;43.944;2023-02-03T09:35:57;98957.69;;;-1.61;69.20
69980;BME280;57318;56.232;43.944;2023-02-03T09:38:23;98957.47;;;-1.55;69.09
69980;BME280;57318;56.232;43.944;2023-02-03T09:40:53;98946.44;;;-1.61;68.56
69980;BME280;57318;56.232;43.944;2023-02-03T09:46:12;98943.09;;;-1.65;69.12
69980;BME280;57318;56.232;43.944;2023-02-03T09:48:43;98941.41;;;-1.66;69.05
69980;BME280;57318;56.232;43.944;2023-02-03T09:51:35;98932.66;;;-1.65;69.32
69980;BME280;57318;56.232;43.944;2023-02-03T09:54:06;98940.56;;;-1.67;69.27
69980;BME280;57318;56.232;43.944;2023-02-03T09:56:38;98939.41;;;-1.59;69.51
69980;BME280;57318;56.232;43.944;2023-02-03T09:59:05;98936.09;;;-1.63;69.21
69980;BME280;57318;56.232;43.944;2023-02-03T10:01:43;98932.38;;;-1.57;69.14
69980;BME280;57318;56.232;43.944;2023-02-03T10:07:38;98926.22;;;-1.55;69.26
69980;BME280;57318;56.232;43.944;2023-02-03T10:17:53;98931.28;;;-1.52;68.84
69980;BME280;57318;56.232;43.944;2023-02-03T10:20:42;98934.69;;;-1.50;69.13
69980;BME280;57318;56.232;43.944;2023-02-03T10:23:21;98931.00;;;-1.44;68.75
69980;BME280;57318;56.232;43.944;2023-02-03T10:25:52;98933.84;;;-1.50;68.47
69980;BME280;57318;56.232;43.944;2023-02-03T10:28:30;98937.22;;;-1.48;68.54
69980;BME280;57318;56.232;43.944;2023-02-03T10:31:00;98929.00;;;-1.59;68.33
69980;BME280;57318;56.232;43.944;2023-02-03T10:33:30;98932.38;;;-1.57;68.95
69980;BME280;57318;56.232;43.944;2023-02-03T10:38:49;98937.47;;;-1.54;68.92
69980;BME280;57318;56.232;43.944;2023-02-03T10:41:19;98928.03;;;-1.57;68.97
69980;BME280;57318;56.232;43.944;2023-02-03T10:43:46;98933.00;;;-1.51;69.19
69980;BME280;57318;56.232;43.944;2023-02-03T10:46:36;98923.06;;;-1.63;68.88
69980;BME280;57318;56.232;43.944;2023-02-03T10:49:03;98918.81;;;-1.66;69.25
69980;BME280;57318;56.232;43.944;2023-02-03T10:51:50;98922.34;;;-1.67;69.40
69980;BME280;57318;56.232;43.944;2023-02-03T10:54:45;98925.00;;;-1.68;69.37
69980;BME280;57318;56.232;43.944;2023-02-03T10:57:13;98914.56;;;-1.68;69.36
69980;BME280;57318;56.232;43.944;2023-02-03T10:59:42;98919.91;;;-1.71;69.06
69980;BME280;57318;56.232;43.944;2023-02-03T11:02:20;98913.72;;;-1.69;69.20
69980;BME280;57318;56.232;43.944;2023-02-03T11:04:46;98922.44;;;-1.70;68.96
69980;BME280;57318;56.232;43.944;2023-02-03T11:07:32;98914.38;;;-1.64;69.39
69980;BME280;57318;56.232;43.944;2023-02-03T11:09:58;98913.28;;;-1.58;69.06
69980;BME280;57318;56.232;43.944;2023-02-03T11:12:23;98916.19;;;-1.43;69.03
69980;BME280;57318;56.232;43.944;2023-02-03T11:14:51;98921.19;;;-1.37;68.71
69980;BME280;57318;56.232;43.944;2023-02-03T11:17:19;98924.25;;;-1.28;68.41
69980;BME280;57318;56.232;43.944;2023-02-03T11:19:49;98928.16;;;-1.16;68.50
69980;BME280;57318;56.232;43.944;2023-02-03T11:22:42;98927.31;;;-1.16;68.31
69980;BME280;57318;56.232;43.944;2023-02-03T11:25:27;98926.44;;;-1.17;67.90
69980;BME280;57318;56.232;43.944;2023-02-03T11:28:03;98930.09;;;-1.21;67.83
69980;BME280;57318;56.232;43.944;2023-02-03T11:30:29;98918.22;;;-1.28;68.20
69980;BME280;57318;56.232;43.944;2023-02-03T11:32:55;98926.31;;;-1.36;68.07
69980;BME280;57318;56.232;43.944;2023-02-03T11:35:26;98928.63;;;-1.50;68.35
69980;BME280;57318;56.232;43.944;2023-02-03T11:37:58;98928.25;;;-1.63;68.54
69980;BME280;57318;56.232;43.944;2023-02-03T11:40:27;98928.56;;;-1.71;68.88
69980;BME280;57318;56.232;43.944;2023-02-03T11:45:29;98928.91;;;-1.80;69.38
69980;BME280;57318;56.232;43.944;2023-02-03T11:48:06;98928.22;;;-1.85;69.70
69980;BME280;57318;56.232;43.944;2023-02-03T11:58:43;98942.38;;;-2.16;70.59
69980;BME280;57318;56.232;43.944;2023-02-03T12:01:15;98942.75;;;-2.27;71.07
69980;BME280;57318;56.232;43.944;2023-02-03T12:10:01;98944.28;;;-2.45;72.06
69980;BME280;57318;56.232;43.944;2023-02-03T12:13:00;98937.50;;;-2.50;72.47
69980;BME280;57318;56.232;43.944;2023-02-03T12:21:46;98940.84;;;-2.72;73.73
69980;BME280;57318;56.232;43.944;2023-02-03T12:30:02;98935.88;;;-2.78;74.52
69980;BME280;57318;56.232;43.944;2023-02-03T12:32:36;98935.09;;;-2.82;74.51
69980;BME280;57318;56.232;43.944;2023-02-03T12:35:20;98940.31;;;-2.82;74.60
69980;BME280;57318;56.232;43.944;2023-02-03T12:37:57;98941.19;;;-2.81;74.50
69980;BME280;57318;56.232;43.944;2023-02-03T12:40:38;98946.19;;;-2.77;75.02
69980;BME280;57318;56.232;43.944;2023-02-03T12:43:33;98940.06;;;-2.74;74.98
69980;BME280;57318;56.232;43.944;2023-02-03T12:46:20;98939.91;;;-2.69;74.83
69980;BME280;57318;56.232;43.944;2023-02-03T12:48:58;98936.34;;;-2.67;74.90
69980;BME280;57318;56.232;43.944;2023-02-03T12:51:32;98943.13;;;-2.63;74.77
69980;BME280;57318;56.232;43.944;2023-02-03T12:56:50;98937.44;;;-2.74;75.02
69980;BME280;57318;56.232;43.944;2023-02-03T12:59:22;98930.72;;;-2.80;75.23
69980;BME280;57318;56.232;43.944;2023-02-03T13:01:53;98934.16;;;-2.79;75.28
69980;BME280;57318;56.232;43.944;2023-02-03T13:04:30;98931.78;;;-2.85;75.60
69980;BME280;57318;56.232;43.944;2023-02-03T13:07:22;98937.13;;;-2.90;75.62
69980;BME280;57318;56.232;43.944;2023-02-03T13:10:00;98926.03;;;-2.95;75.58
69980;BME280;57318;56.232;43.944;2023-02-03T13:12:30;98931.38;;;-3.00;75.56
69980;BME280;57318;56.232;43.944;2023-02-03T13:17:43;98933.59;;;-3.14;76.28
69980;BME280;57318;56.232;43.944;2023-02-03T13:20:22;98939.69;;;-3.15;76.50
69980;BME280;57318;56.232;43.944;2023-02-03T13:22:53;98942.56;;;-3.24;76.60
69980;BME280;57318;56.232;43.944;2023-02-03T13:28:22;98940.16;;;-3.31;76.93
69980;BME280;57318;56.232;43.944;2023-02-03T13:34:16;98937.94;;;-3.43;77.13
69980;BME280;57318;56.232;43.944;2023-02-03T13:42:43;98937.66;;;-3.62;77.50
69980;BME280;57318;56.232;43.944;2023-02-03T13:50:39;98937.97;;;-3.73;78.49
69980;BME280;57318;56.232;43.944;2023-02-03T13:53:14;98940.66;;;-3.76;78.49
69980;BME280;57318;56.232;43.944;2023-02-03T13:56:01;98939.88;;;-3.78;78.71
69980;BME280;57318;56.232;43.944;2023-02-03T13:58:33;98939.06;;;-3.80;78.81
69980;BME280;57318;56.232;43.944;2023-02-03T14:01:05;98953.78;;;-3.81;79.15
69980;BME280;57318;56.232;43.944;2023-02-03T14:06:00;98943.44;;;-3.82;79.35
69980;BME280;57318;56.232;43.944;2023-02-03T14:16:48;98955.63;;;-3.84;79.59
69980;BME280;57318;56.232;43.944;2023-02-03T14:21:55;98954.84;;;-3.86;79.57
69980;BME280;57318;56.232;43.944;2023-02-03T14:24:29;98957.34;;;-3.83;79.82
69980;BME280;57318;56.232;43.944;2023-02-03T14:26:56;98954.66;;;-3.80;79.63
69980;BME280;57318;56.232;43.944;2023-02-03T14:29:33;98956.47;;;-3.84;79.75
69980;BME280;57318;56.232;43.944;2023-02-03T14:50:50;98951.31;;;-3.85;80.16
69980;BME280;57318;56.232;43.944;2023-02-03T14:53:32;98953.91;;;-3.85;80.59
69980;BME280;57318;56.232;43.944;2023-02-03T14:56:20;98945.47;;;-3.92;80.52
69980;BME280;57318;56.232;43.944;2023-02-03T14:58:52;98946.25;;;-3.88;80.52
69980;BME280;57318;56.232;43.944;2023-02-03T15:06:49;98942.97;;;-3.95;80.91
69980;BME280;57318;56.232;43.944;2023-02-03T15:09:26;98937.81;;;-3.96;80.81
69980;BME280;57318;56.232;43.944;2023-02-03T15:11:53;98941.44;;;-4.02;81.05